sensor_id;sensor_type;location;lat;lon;timestamp;P1;durP1;ratioP1;P2;durP2;ratioP2
15271;SDS011;7737;51.578;7.268;2023-10-13T00:01:19;14.38;;;10.40;;
15271;SDS011;7737;51.578;7.268;2023-10-13T00:03:46;13.63;;;10.10;;
15271;SDS011;7737;51.578;7.268;2023-10-13T00:06:13;12.80;;;10.43;;
15271;SDS011;7737;51.578;7.268;2023-10-13T00:08:40;12.43;;;10.65;;
15271;SDS011;7737;51.578;7.268;2023-10-13T00:11:12;14.02;;;10.80;;
15271;SDS011;7737;51.578;7.268;2023-10-13T00:13:39;12.05;;;10.32;;
15271;SDS011;7737;51.578;7.268;2023-10-13T00:16:15;12.73;;;9.68;;
15271;SDS011;7737;51.578;7.268;2023-10-13T00:18:46;11.88;;;9.82;;
15271;SDS011;7737;51.578;7.268;2023-10-13T00:21:13;12.40;;;9.43;;
15271;SDS011;7737;51.578;7.268;2023-10-13T00:23:45;13.48;;;9.90;;
15271;SDS011;7737;51.578;7.268;2023-10-13T00:26:19;13.13;;;9.90;;
15271;SDS011;7737;51.578;7.268;2023-10-13T00:28:50;12.85;;;9.73;;
15271;SDS011;7737;51.578;7.268;2023-10-13T00:31:24;12.50;;;9.20;;
15271;SDS011;7737;51.578;7.268;2023-10-13T00:33:54;10.85;;;9.20;;
15271;SDS011;7737;51.578;7.268;2023-10-13T00:36:26;12.32;;;8.80;;
15271;SDS011;7737;51.578;7.268;2023-10-13T00:38:52;12.55;;;9.15;;
15271;SDS011;7737;51.578;7.268;2023-10-13T00:41:22;9.43;;;8.30;;
15271;SDS011;7737;51.578;7.268;2023-10-13T00:44:09;13.70;;;9.63;;
15271;SDS011;7737;51.578;7.268;2023-10-13T00:46:36;11.70;;;9.25;;
15271;SDS011;7737;51.578;7.268;2023-10-13T00:49:04;12.23;;;8.57;;
15271;SDS011;7737;51.578;7.268;2023-10-13T00:51:34;10.75;;;8.73;;
15271;SDS011;7737;51.578;7.268;2023-10-13T00:54:01;12.63;;;8.65;;
15271;SDS011;7737;51.578;7.268;2023-10-13T00:56:34;10.10;;;8.73;;
15271;SDS011;7737;51.578;7.268;2023-10-13T00:59:06;10.63;;;8.63;;
15271;SDS011;7737;51.578;7.268;2023-10-13T01:01:35;11.07;;;8.25;;
15271;SDS011;7737;51.578;7.268;2023-10-13T01:04:01;9.38;;;8.45;;
15271;SDS011;7737;51.578;7.268;2023-10-13T01:06:31;11.52;;;9.23;;
15271;SDS011;7737;51.578;7.268;2023-10-13T01:08:57;9.68;;;8.63;;
15271;SDS011;7737;51.578;7.268;2023-10-13T01:11:37;12.77;;;8.65;;
15271;SDS011;7737;51.578;7.268;2023-10-13T01:14:03;12.57;;;8.75;;
15271;SDS011;7737;51.578;7.268;2023-10-13T01:16:31;12.07;;;8.45;;
15271;SDS011;7737;51.578;7.268;2023-10-13T01:18:57;11.10;;;8.02;;
15271;SDS011;7737;51.578;7.268;2023-10-13T01:21:25;11.35;;;9.00;;
15271;SDS011;7737;51.578;7.268;2023-10-13T01:23:53;11.88;;;8.52;;
15271;SDS011;7737;51.578;7.268;2023-10-13T01:26:20;11.77;;;8.82;;
15271;SDS011;7737;51.578;7.268;2023-10-13T01:28:47;12.90;;;9.48;;
15271;SDS011;7737;51.578;7.268;2023-10-13T01:31:15;13.82;;;9.43;;
15271;SDS011;7737;51.578;7.268;2023-10-13T01:33:49;12.00;;;8.70;;
15271;SDS011;7737;51.578;7.268;2023-10-13T01:36:19;12.60;;;9.35;;
15271;SDS011;7737;51.578;7.268;2023-10-13T01:38:45;11.77;;;8.95;;
15271;SDS011;7737;51.578;7.268;2023-10-13T01:41:14;12.90;;;9.05;;
15271;SDS011;7737;51.578;7.268;2023-10-13T01:43:40;12.40;;;8.65;;
15271;SDS011;7737;51.578;7.268;2023-10-13T01:46:07;11.25;;;8.70;;
15271;SDS011;7737;51.578;7.268;2023-10-13T01:48:34;13.05;;;8.82;;
15271;SDS011;7737;51.578;7.268;2023-10-13T01:51:04;11.05;;;8.48;;
15271;SDS011;7737;51.578;7.268;2023-10-13T01:53:33;12.95;;;9.00;;
15271;SDS011;7737;51.578;7.268;2023-10-13T01:56:00;11.27;;;8.82;;
15271;SDS011;7737;51.578;7.268;2023-10-13T01:58:31;12.75;;;9.32;;
15271;SDS011;7737;51.578;7.268;2023-10-13T02:00:59;12.57;;;9.88;;
15271;SDS011;7737;51.578;7.268;2023-10-13T02:03:25;11.10;;;9.80;;
15271;SDS011;7737;51.578;7.268;2023-10-13T02:05:55;12.40;;;9.73;;
15271;SDS011;7737;51.578;7.268;2023-10-13T02:08:23;12.95;;;9.52;;
15271;SDS011;7737;51.578;7.268;2023-10-13T02:10:50;12.88;;;9.00;;
15271;SDS011;7737;51.578;7.268;2023-10-13T02:13:16;12.50;;;9.40;;
15271;SDS011;7737;51.578;7.268;2023-10-13T02:15:46;12.88;;;9.32;;
15271;SDS011;7737;51.578;7.268;2023-10-13T02:18:13;11.70;;;8.93;;
15271;SDS011;7737;51.578;7.268;2023-10-13T02:20:46;11.38;;;9.32;;
15271;SDS011;7737;51.578;7.268;2023-10-13T02:23:19;9.73;;;8.65;;
15271;SDS011;7737;51.578;7.268;2023-10-13T02:25:46;11.63;;;9.45;;
15271;SDS011;7737;51.578;7.268;2023-10-13T02:28:11;10.18;;;8.93;;
15271;SDS011;7737;51.578;7.268;2023-10-13T02:30:40;11.88;;;8.43;;
15271;SDS011;7737;51.578;7.268;2023-10-13T02:33:11;9.65;;;8.38;;
15271;SDS011;7737;51.578;7.268;2023-10-13T02:35:38;10.65;;;7.97;;
15271;SDS011;7737;51.578;7.268;2023-10-13T02:38:09;9.63;;;8.70;;
15271;SDS011;7737;51.578;7.268;2023-10-13T02:40:40;11.25;;;8.80;;
15271;SDS011;7737;51.578;7.268;2023-10-13T02:43:07;11.18;;;8.32;;
15271;SDS011;7737;51.578;7.268;2023-10-13T02:45:32;11.02;;;9.07;;
15271;SDS011;7737;51.578;7.268;2023-10-13T02:48:02;12.27;;;9.10;;
15271;SDS011;7737;51.578;7.268;2023-10-13T02:50:40;11.02;;;9.60;;
15271;SDS011;7737;51.578;7.268;2023-10-13T02:53:10;10.80;;;8.63;;
15271;SDS011;7737;51.578;7.268;2023-10-13T02:55:37;10.32;;;9.23;;
15271;SDS011;7737;51.578;7.268;2023-10-13T02:58:05;11.27;;;9.25;;
15271;SDS011;7737;51.578;7.268;2023-10-13T03:00:31;12.75;;;9.25;;
15271;SDS011;7737;51.578;7.268;2023-10-13T03:02:58;10.52;;;9.20;;
15271;SDS011;7737;51.578;7.268;2023-10-13T03:05:24;12.48;;;9.60;;
15271;SDS011;7737;51.578;7.268;2023-10-13T03:07:56;11.25;;;9.13;;
15271;SDS011;7737;51.578;7.268;2023-10-13T03:10:23;10.15;;;8.40;;
15271;SDS011;7737;51.578;7.268;2023-10-13T03:12:54;10.70;;;8.43;;
15271;SDS011;7737;51.578;7.268;2023-10-13T03:15:20;10.43;;;8.48;;
15271;SDS011;7737;51.578;7.268;2023-10-13T03:17:54;10.32;;;8.43;;
15271;SDS011;7737;51.578;7.268;2023-10-13T03:20:23;10.82;;;8.43;;
15271;SDS011;7737;51.578;7.268;2023-10-13T03:22:56;11.05;;;8.55;;
15271;SDS011;7737;51.578;7.268;2023-10-13T03:25:24;11.65;;;8.50;;
15271;SDS011;7737;51.578;7.268;2023-10-13T03:27:54;9.75;;;8.75;;
15271;SDS011;7737;51.578;7.268;2023-10-13T03:30:26;9.88;;;8.50;;
15271;SDS011;7737;51.578;7.268;2023-10-13T03:33:00;11.77;;;9.10;;
15271;SDS011;7737;51.578;7.268;2023-10-13T03:35:31;10.13;;;8.82;;
15271;SDS011;7737;51.578;7.268;2023-10-13T03:38:05;10.07;;;9.05;;
15271;SDS011;7737;51.578;7.268;2023-10-13T03:40:39;9.82;;;8.82;;
15271;SDS011;7737;51.578;7.268;2023-10-13T03:43:06;10.27;;;9.02;;
15271;SDS011;7737;51.578;7.268;2023-10-13T03:45:35;11.73;;;9.63;;
15271;SDS011;7737;51.578;7.268;2023-10-13T03:48:04;11.90;;;9.05;;
15271;SDS011;7737;51.578;7.268;2023-10-13T03:50:35;11.45;;;9.40;;
15271;SDS011;7737;51.578;7.268;2023-10-13T03:53:02;14.32;;;10.05;;
15271;SDS011;7737;51.578;7.268;2023-10-13T03:55:32;11.90;;;9.40;;
15271;SDS011;7737;51.578;7.268;2023-10-13T03:58:00;11.80;;;9.48;;
15271;SDS011;7737;51.578;7.268;2023-10-13T04:00:28;11.80;;;9.68;;
15271;SDS011;7737;51.578;7.268;2023-10-13T04:02:56;11.48;;;9.63;;
15271;SDS011;7737;51.578;7.268;2023-10-13T04:05:34;12.20;;;9.68;;
15271;SDS011;7737;51.578;7.268;2023-10-13T04:08:06;12.90;;;10.05;;
15271;SDS011;7737;51.578;7.268;2023-10-13T04:10:53;13.80;;;9.88;;
15271;SDS011;7737;51.578;7.268;2023-10-13T04:13:36;11.30;;;10.13;;
15271;SDS011;7737;51.578;7.268;2023-10-13T04:16:20;12.57;;;9.30;;
15271;SDS011;7737;51.578;7.268;2023-10-13T04:19:01;12.80;;;10.02;;
15271;SDS011;7737;51.578;7.268;2023-10-13T04:21:44;12.10;;;9.70;;
15271;SDS011;7737;51.578;7.268;2023-10-13T04:24:22;10.80;;;9.13;;
15271;SDS011;7737;51.578;7.268;2023-10-13T04:27:19;10.25;;;9.07;;
15271;SDS011;7737;51.578;7.268;2023-10-13T04:30:04;12.35;;;9.45;;
15271;SDS011;7737;51.578;7.268;2023-10-13T04:32:52;10.20;;;9.20;;
15271;SDS011;7737;51.578;7.268;2023-10-13T04:35:54;9.48;;;8.55;;
15271;SDS011;7737;51.578;7.268;2023-10-13T04:38:24;11.30;;;9.02;;
15271;SDS011;7737;51.578;7.268;2023-10-13T04:40:58;10.30;;;8.75;;
15271;SDS011;7737;51.578;7.268;2023-10-13T04:43:27;9.98;;;8.98;;
15271;SDS011;7737;51.578;7.268;2023-10-13T04:46:19;9.80;;;8.80;;
15271;SDS011;7737;51.578;7.268;2023-10-13T04:49:00;10.77;;;8.65;;
15271;SDS011;7737;51.578;7.268;2023-10-13T04:51:35;10.68;;;9.10;;
15271;SDS011;7737;51.578;7.268;2023-10-13T04:54:15;10.27;;;8.60;;
15271;SDS011;7737;51.578;7.268;2023-10-13T04:56:51;9.75;;;8.50;;
15271;SDS011;7737;51.578;7.268;2023-10-13T04:59:47;10.35;;;9.18;;
15271;SDS011;7737;51.578;7.268;2023-10-13T05:02:32;9.50;;;8.23;;
15271;SDS011;7737;51.578;7.268;2023-10-13T05:05:20;10.10;;;9.10;;
15271;SDS011;7737;51.578;7.268;2023-10-13T05:08:04;9.48;;;8.50;;
15271;SDS011;7737;51.578;7.268;2023-10-13T05:10:48;11.18;;;8.48;;
15271;SDS011;7737;51.578;7.268;2023-10-13T05:13:33;15.23;;;8.70;;
15271;SDS011;7737;51.578;7.268;2023-10-13T05:16:18;9.50;;;8.50;;
15271;SDS011;7737;51.578;7.268;2023-10-13T05:19:02;10.43;;;9.27;;
15271;SDS011;7737;51.578;7.268;2023-10-13T05:21:46;11.88;;;9.05;;
15271;SDS011;7737;51.578;7.268;2023-10-13T05:24:30;11.20;;;8.55;;
15271;SDS011;7737;51.578;7.268;2023-10-13T05:27:13;10.88;;;9.15;;
15271;SDS011;7737;51.578;7.268;2023-10-13T05:29:57;12.13;;;8.52;;
15271;SDS011;7737;51.578;7.268;2023-10-13T05:32:43;10.07;;;8.60;;
15271;SDS011;7737;51.578;7.268;2023-10-13T05:35:27;11.27;;;8.80;;
15271;SDS011;7737;51.578;7.268;2023-10-13T05:38:11;12.30;;;9.23;;
15271;SDS011;7737;51.578;7.268;2023-10-13T05:40:55;12.73;;;9.55;;
15271;SDS011;7737;51.578;7.268;2023-10-13T05:43:40;10.05;;;9.00;;
15271;SDS011;7737;51.578;7.268;2023-10-13T05:46:25;10.45;;;9.02;;
15271;SDS011;7737;51.578;7.268;2023-10-13T05:49:10;10.02;;;8.98;;
15271;SDS011;7737;51.578;7.268;2023-10-13T05:52:04;13.55;;;9.40;;
15271;SDS011;7737;51.578;7.268;2023-10-13T05:54:33;12.80;;;9.32;;
15271;SDS011;7737;51.578;7.268;2023-10-13T05:57:17;13.73;;;9.90;;
15271;SDS011;7737;51.578;7.268;2023-10-13T06:00:00;13.35;;;9.68;;
15271;SDS011;7737;51.578;7.268;2023-10-13T06:02:59;11.15;;;8.82;;
15271;SDS011;7737;51.578;7.268;2023-10-13T06:05:44;11.05;;;9.15;;
15271;SDS011;7737;51.578;7.268;2023-10-13T06:08:28;11.82;;;8.35;;
15271;SDS011;7737;51.578;7.268;2023-10-13T06:11:12;11.98;;;7.85;;
15271;SDS011;7737;51.578;7.268;2023-10-13T06:13:56;11.80;;;8.45;;
15271;SDS011;7737;51.578;7.268;2023-10-13T06:16:40;10.93;;;8.07;;
15271;SDS011;7737;51.578;7.268;2023-10-13T06:19:24;12.23;;;8.10;;
15271;SDS011;7737;51.578;7.268;2023-10-13T06:22:10;11.50;;;7.80;;
15271;SDS011;7737;51.578;7.268;2023-10-13T06:24:50;10.70;;;7.47;;
15271;SDS011;7737;51.578;7.268;2023-10-13T06:27:34;12.25;;;7.50;;
15271;SDS011;7737;51.578;7.268;2023-10-13T06:30:18;8.65;;;6.60;;
15271;SDS011;7737;51.578;7.268;2023-10-13T06:32:45;10.45;;;6.93;;
15271;SDS011;7737;51.578;7.268;2023-10-13T06:35:11;11.70;;;6.63;;
15271;SDS011;7737;51.578;7.268;2023-10-13T06:37:49;10.00;;;7.35;;
15271;SDS011;7737;51.578;7.268;2023-10-13T06:40:15;9.13;;;7.00;;
15271;SDS011;7737;51.578;7.268;2023-10-13T06:42:51;11.05;;;6.68;;
15271;SDS011;7737;51.578;7.268;2023-10-13T06:45:18;8.50;;;5.95;;
15271;SDS011;7737;51.578;7.268;2023-10-13T06:47:46;11.05;;;6.07;;
15271;SDS011;7737;51.578;7.268;2023-10-13T06:50:17;8.90;;;6.35;;
15271;SDS011;7737;51.578;7.268;2023-10-13T06:52:45;9.95;;;6.20;;
15271;SDS011;7737;51.578;7.268;2023-10-13T06:55:14;11.50;;;6.07;;
15271;SDS011;7737;51.578;7.268;2023-10-13T06:57:48;10.70;;;5.72;;
15271;SDS011;7737;51.578;7.268;2023-10-13T07:00:16;10.70;;;5.57;;
15271;SDS011;7737;51.578;7.268;2023-10-13T07:02:53;12.77;;;6.30;;
15271;SDS011;7737;51.578;7.268;2023-10-13T07:05:30;11.95;;;5.70;;
15271;SDS011;7737;51.578;7.268;2023-10-13T07:07:59;10.65;;;5.68;;
15271;SDS011;7737;51.578;7.268;2023-10-13T07:10:30;11.18;;;6.43;;
15271;SDS011;7737;51.578;7.268;2023-10-13T07:13:00;11.20;;;6.50;;
15271;SDS011;7737;51.578;7.268;2023-10-13T07:15:32;11.15;;;5.80;;
15271;SDS011;7737;51.578;7.268;2023-10-13T07:18:09;8.25;;;5.50;;
15271;SDS011;7737;51.578;7.268;2023-10-13T07:20:38;10.23;;;5.53;;
15271;SDS011;7737;51.578;7.268;2023-10-13T07:23:09;8.32;;;5.78;;
15271;SDS011;7737;51.578;7.268;2023-10-13T07:25:38;11.13;;;5.88;;
15271;SDS011;7737;51.578;7.268;2023-10-13T07:28:06;7.20;;;5.32;;
15271;SDS011;7737;51.578;7.268;2023-10-13T07:30:33;10.25;;;5.50;;
15271;SDS011;7737;51.578;7.268;2023-10-13T07:33:14;10.95;;;5.60;;
15271;SDS011;7737;51.578;7.268;2023-10-13T07:35:46;10.52;;;5.60;;
15271;SDS011;7737;51.578;7.268;2023-10-13T07:38:16;10.48;;;5.80;;
15271;SDS011;7737;51.578;7.268;2023-10-13T07:40:44;11.07;;;5.85;;
15271;SDS011;7737;51.578;7.268;2023-10-13T07:43:16;10.32;;;5.95;;
15271;SDS011;7737;51.578;7.268;2023-10-13T07:45:46;9.70;;;5.50;;
15271;SDS011;7737;51.578;7.268;2023-10-13T07:48:16;8.52;;;5.47;;
15271;SDS011;7737;51.578;7.268;2023-10-13T07:50:45;10.82;;;5.93;;
15271;SDS011;7737;51.578;7.268;2023-10-13T07:53:14;8.45;;;5.85;;
15271;SDS011;7737;51.578;7.268;2023-10-13T07:55:51;9.77;;;5.90;;
15271;SDS011;7737;51.578;7.268;2023-10-13T07:58:21;10.13;;;6.07;;
15271;SDS011;7737;51.578;7.268;2023-10-13T08:00:50;9.38;;;5.93;;
15271;SDS011;7737;51.578;7.268;2023-10-13T08:03:20;10.75;;;5.63;;
15271;SDS011;7737;51.578;7.268;2023-10-13T08:06:08;9.70;;;5.00;;
15271;SDS011;7737;51.578;7.268;2023-10-13T08:08:44;9.38;;;5.70;;
15271;SDS011;7737;51.578;7.268;2023-10-13T08:11:16;9.43;;;5.45;;
15271;SDS011;7737;51.578;7.268;2023-10-13T08:13:52;13.43;;;6.18;;
15271;SDS011;7737;51.578;7.268;2023-10-13T08:16:23;12.00;;;5.80;;
15271;SDS011;7737;51.578;7.268;2023-10-13T08:19:10;9.95;;;5.50;;
15271;SDS011;7737;51.578;7.268;2023-10-13T08:21:38;9.38;;;5.10;;
15271;SDS011;7737;51.578;7.268;2023-10-13T08:24:05;10.65;;;5.63;;
15271;SDS011;7737;51.578;7.268;2023-10-13T08:26:34;9.27;;;4.95;;
15271;SDS011;7737;51.578;7.268;2023-10-13T08:29:18;10.85;;;4.97;;
15271;SDS011;7737;51.578;7.268;2023-10-13T08:32:02;13.05;;;4.97;;
15271;SDS011;7737;51.578;7.268;2023-10-13T08:34:59;9.82;;;5.20;;
15271;SDS011;7737;51.578;7.268;2023-10-13T08:37:41;9.35;;;5.32;;
15271;SDS011;7737;51.578;7.268;2023-10-13T08:40:22;11.15;;;5.15;;
15271;SDS011;7737;51.578;7.268;2023-10-13T08:43:04;9.65;;;4.78;;
15271;SDS011;7737;51.578;7.268;2023-10-13T08:45:38;11.98;;;4.82;;
15271;SDS011;7737;51.578;7.268;2023-10-13T08:48:23;10.23;;;5.03;;
15271;SDS011;7737;51.578;7.268;2023-10-13T08:50:56;9.45;;;4.45;;
15271;SDS011;7737;51.578;7.268;2023-10-13T08:53:30;10.00;;;4.57;;
15271;SDS011;7737;51.578;7.268;2023-10-13T08:55:59;9.23;;;4.70;;
15271;SDS011;7737;51.578;7.268;2023-10-13T08:58:36;10.10;;;4.60;;
15271;SDS011;7737;51.578;7.268;2023-10-13T09:01:31;9.18;;;4.35;;
15271;SDS011;7737;51.578;7.268;2023-10-13T09:04:14;11.43;;;5.22;;
15271;SDS011;7737;51.578;7.268;2023-10-13T09:06:48;10.13;;;4.78;;
15271;SDS011;7737;51.578;7.268;2023-10-13T09:09:28;10.73;;;4.35;;
15271;SDS011;7737;51.578;7.268;2023-10-13T09:12:00;9.13;;;4.75;;
15271;SDS011;7737;51.578;7.268;2023-10-13T09:14:36;8.63;;;4.28;;
15271;SDS011;7737;51.578;7.268;2023-10-13T09:17:06;12.00;;;4.40;;
15271;SDS011;7737;51.578;7.268;2023-10-13T09:19:44;11.57;;;4.60;;
15271;SDS011;7737;51.578;7.268;2023-10-13T09:22:19;13.55;;;5.30;;
15271;SDS011;7737;51.578;7.268;2023-10-13T09:24:55;11.20;;;5.00;;
15271;SDS011;7737;51.578;7.268;2023-10-13T09:27:24;13.00;;;4.63;;
15271;SDS011;7737;51.578;7.268;2023-10-13T09:29:57;11.75;;;4.85;;
15271;SDS011;7737;51.578;7.268;2023-10-13T09:32:32;9.35;;;4.90;;
15271;SDS011;7737;51.578;7.268;2023-10-13T09:35:10;13.95;;;4.43;;
15271;SDS011;7737;51.578;7.268;2023-10-13T09:37:41;12.35;;;4.72;;
15271;SDS011;7737;51.578;7.268;2023-10-13T09:40:11;10.13;;;4.80;;
15271;SDS011;7737;51.578;7.268;2023-10-13T09:42:50;11.60;;;4.50;;
15271;SDS011;7737;51.578;7.268;2023-10-13T09:45:18;11.65;;;4.47;;
15271;SDS011;7737;51.578;7.268;2023-10-13T09:47:52;9.05;;;4.45;;
15271;SDS011;7737;51.578;7.268;2023-10-13T09:50:22;7.45;;;4.30;;
15271;SDS011;7737;51.578;7.268;2023-10-13T09:52:52;10.65;;;4.80;;
15271;SDS011;7737;51.578;7.268;2023-10-13T09:55:23;10.38;;;4.60;;
15271;SDS011;7737;51.578;7.268;2023-10-13T09:57:57;10.93;;;5.00;;
15271;SDS011;7737;51.578;7.268;2023-10-13T10:00:37;8.10;;;4.75;;
15271;SDS011;7737;51.578;7.268;2023-10-13T10:03:13;13.38;;;4.63;;
15271;SDS011;7737;51.578;7.268;2023-10-13T10:05:57;9.70;;;4.80;;
15271;SDS011;7737;51.578;7.268;2023-10-13T10:08:31;9.57;;;5.10;;
15271;SDS011;7737;51.578;7.268;2023-10-13T10:13:52;8.52;;;5.00;;
15271;SDS011;7737;51.578;7.268;2023-10-13T10:16:33;8.60;;;5.05;;
15271;SDS011;7737;51.578;7.268;2023-10-13T10:19:07;10.27;;;5.00;;
15271;SDS011;7737;51.578;7.268;2023-10-13T10:21:34;10.50;;;5.18;;
15271;SDS011;7737;51.578;7.268;2023-10-13T10:24:00;9.10;;;5.60;;
15271;SDS011;7737;51.578;7.268;2023-10-13T10:26:30;10.80;;;5.25;;
15271;SDS011;7737;51.578;7.268;2023-10-13T10:28:57;12.82;;;5.47;;
15271;SDS011;7737;51.578;7.268;2023-10-13T10:31:32;8.23;;;5.03;;
15271;SDS011;7737;51.578;7.268;2023-10-13T10:34:10;11.10;;;5.63;;
15271;SDS011;7737;51.578;7.268;2023-10-13T10:36:37;9.48;;;5.07;;
15271;SDS011;7737;51.578;7.268;2023-10-13T10:39:08;9.82;;;5.10;;
15271;SDS011;7737;51.578;7.268;2023-10-13T10:41:37;9.75;;;5.15;;
15271;SDS011;7737;51.578;7.268;2023-10-13T10:44:10;9.43;;;5.70;;
15271;SDS011;7737;51.578;7.268;2023-10-13T10:46:43;10.80;;;5.30;;
15271;SDS011;7737;51.578;7.268;2023-10-13T10:49:22;10.07;;;5.22;;
15271;SDS011;7737;51.578;7.268;2023-10-13T10:51:55;9.52;;;5.53;;
15271;SDS011;7737;51.578;7.268;2023-10-13T10:54:26;7.75;;;4.72;;
15271;SDS011;7737;51.578;7.268;2023-10-13T10:56:56;10.85;;;5.47;;
15271;SDS011;7737;51.578;7.268;2023-10-13T10:59:35;12.35;;;5.70;;
15271;SDS011;7737;51.578;7.268;2023-10-13T11:02:04;12.57;;;5.30;;
15271;SDS011;7737;51.578;7.268;2023-10-13T11:04:34;9.20;;;5.40;;
15271;SDS011;7737;51.578;7.268;2023-10-13T11:07:05;8.45;;;5.15;;
15271;SDS011;7737;51.578;7.268;2023-10-13T11:09:33;10.20;;;5.75;;
15271;SDS011;7737;51.578;7.268;2023-10-13T11:12:10;7.35;;;5.47;;
15271;SDS011;7737;51.578;7.268;2023-10-13T11:14:41;10.32;;;5.65;;
15271;SDS011;7737;51.578;7.268;2023-10-13T11:17:18;11.05;;;5.95;;
15271;SDS011;7737;51.578;7.268;2023-10-13T11:19:49;10.38;;;5.45;;
15271;SDS011;7737;51.578;7.268;2023-10-13T11:22:16;8.55;;;5.43;;
15271;SDS011;7737;51.578;7.268;2023-10-13T11:24:57;10.00;;;6.03;;
15271;SDS011;7737;51.578;7.268;2023-10-13T11:27:28;10.02;;;6.00;;
15271;SDS011;7737;51.578;7.268;2023-10-13T11:30:09;9.98;;;5.70;;
15271;SDS011;7737;51.578;7.268;2023-10-13T11:32:41;8.90;;;5.43;;
15271;SDS011;7737;51.578;7.268;2023-10-13T11:35:08;9.70;;;5.95;;
15271;SDS011;7737;51.578;7.268;2023-10-13T11:37:45;10.13;;;6.00;;
15271;SDS011;7737;51.578;7.268;2023-10-13T11:40:20;9.55;;;5.57;;
15271;SDS011;7737;51.578;7.268;2023-10-13T11:43:07;9.10;;;5.95;;
15271;SDS011;7737;51.578;7.268;2023-10-13T11:45:38;11.07;;;6.57;;
15271;SDS011;7737;51.578;7.268;2023-10-13T11:48:21;13.02;;;5.93;;
15271;SDS011;7737;51.578;7.268;2023-10-13T11:51:00;10.40;;;5.50;;
15271;SDS011;7737;51.578;7.268;2023-10-13T11:53:31;10.18;;;5.68;;
15271;SDS011;7737;51.578;7.268;2023-10-13T11:55:58;10.52;;;5.97;;
15271;SDS011;7737;51.578;7.268;2023-10-13T11:58:24;11.15;;;6.60;;
15271;SDS011;7737;51.578;7.268;2023-10-13T12:00:51;7.35;;;5.43;;
15271;SDS011;7737;51.578;7.268;2023-10-13T12:03:20;11.50;;;6.30;;
15271;SDS011;7737;51.578;7.268;2023-10-13T12:06:08;10.88;;;5.50;;
15271;SDS011;7737;51.578;7.268;2023-10-13T12:08:48;14.60;;;6.18;;
15271;SDS011;7737;51.578;7.268;2023-10-13T12:11:17;14.48;;;5.80;;
15271;SDS011;7737;51.578;7.268;2023-10-13T12:14:04;12.15;;;6.03;;
15271;SDS011;7737;51.578;7.268;2023-10-13T12:16:42;14.55;;;6.18;;
15271;SDS011;7737;51.578;7.268;2023-10-13T12:19:15;11.07;;;6.53;;
15271;SDS011;7737;51.578;7.268;2023-10-13T12:21:42;12.40;;;5.57;;
15271;SDS011;7737;51.578;7.268;2023-10-13T12:24:09;12.57;;;5.97;;
15271;SDS011;7737;51.578;7.268;2023-10-13T12:26:47;12.43;;;5.97;;
15271;SDS011;7737;51.578;7.268;2023-10-13T12:29:13;11.75;;;5.43;;
15271;SDS011;7737;51.578;7.268;2023-10-13T12:31:47;11.93;;;5.57;;
15271;SDS011;7737;51.578;7.268;2023-10-13T12:34:27;11.70;;;5.43;;
15271;SDS011;7737;51.578;7.268;2023-10-13T12:37:15;12.25;;;5.80;;
15271;SDS011;7737;51.578;7.268;2023-10-13T12:40:03;12.15;;;5.60;;
15271;SDS011;7737;51.578;7.268;2023-10-13T12:42:48;11.57;;;5.32;;
15271;SDS011;7737;51.578;7.268;2023-10-13T12:45:32;16.02;;;5.72;;
15271;SDS011;7737;51.578;7.268;2023-10-13T12:48:31;12.10;;;5.65;;
15271;SDS011;7737;51.578;7.268;2023-10-13T12:51:17;14.35;;;5.88;;
15271;SDS011;7737;51.578;7.268;2023-10-13T12:53:49;16.23;;;5.40;;
15271;SDS011;7737;51.578;7.268;2023-10-13T12:56:16;13.98;;;5.05;;
15271;SDS011;7737;51.578;7.268;2023-10-13T12:58:51;12.23;;;5.28;;
15271;SDS011;7737;51.578;7.268;2023-10-13T13:01:18;12.32;;;5.40;;
15271;SDS011;7737;51.578;7.268;2023-10-13T13:03:45;12.90;;;5.90;;
15271;SDS011;7737;51.578;7.268;2023-10-13T13:06:15;14.52;;;5.53;;
15271;SDS011;7737;51.578;7.268;2023-10-13T13:08:49;10.02;;;5.50;;
15271;SDS011;7737;51.578;7.268;2023-10-13T13:11:16;15.20;;;5.45;;
15271;SDS011;7737;51.578;7.268;2023-10-13T13:13:43;12.70;;;5.75;;
15271;SDS011;7737;51.578;7.268;2023-10-13T13:16:11;13.73;;;5.50;;
15271;SDS011;7737;51.578;7.268;2023-10-13T13:18:37;10.55;;;5.38;;
15271;SDS011;7737;51.578;7.268;2023-10-13T13:21:04;15.20;;;6.13;;
15271;SDS011;7737;51.578;7.268;2023-10-13T13:23:33;13.70;;;5.75;;
15271;SDS011;7737;51.578;7.268;2023-10-13T13:26:00;12.00;;;5.47;;
15271;SDS011;7737;51.578;7.268;2023-10-13T13:28:26;8.20;;;5.07;;
15271;SDS011;7737;51.578;7.268;2023-10-13T13:30:54;13.25;;;5.70;;
15271;SDS011;7737;51.578;7.268;2023-10-13T13:33:20;10.20;;;5.00;;
15271;SDS011;7737;51.578;7.268;2023-10-13T13:35:53;15.10;;;5.65;;
15271;SDS011;7737;51.578;7.268;2023-10-13T13:38:20;16.02;;;5.68;;
15271;SDS011;7737;51.578;7.268;2023-10-13T13:40:53;16.73;;;5.72;;
15271;SDS011;7737;51.578;7.268;2023-10-13T13:43:20;12.77;;;4.95;;
15271;SDS011;7737;51.578;7.268;2023-10-13T13:46:15;13.90;;;5.60;;
15271;SDS011;7737;51.578;7.268;2023-10-13T13:48:43;13.65;;;5.50;;
15271;SDS011;7737;51.578;7.268;2023-10-13T13:51:12;12.88;;;5.43;;
15271;SDS011;7737;51.578;7.268;2023-10-13T13:53:40;10.68;;;5.15;;
15271;SDS011;7737;51.578;7.268;2023-10-13T13:56:11;12.32;;;5.32;;
15271;SDS011;7737;51.578;7.268;2023-10-13T13:58:41;13.30;;;5.28;;
15271;SDS011;7737;51.578;7.268;2023-10-13T14:01:08;15.07;;;5.70;;
15271;SDS011;7737;51.578;7.268;2023-10-13T14:03:39;13.70;;;5.78;;
15271;SDS011;7737;51.578;7.268;2023-10-13T14:06:10;12.30;;;5.13;;
15271;SDS011;7737;51.578;7.268;2023-10-13T14:08:42;13.43;;;5.25;;
15271;SDS011;7737;51.578;7.268;2023-10-13T14:11:09;13.60;;;5.00;;
15271;SDS011;7737;51.578;7.268;2023-10-13T14:13:48;15.82;;;5.43;;
15271;SDS011;7737;51.578;7.268;2023-10-13T14:16:14;14.27;;;5.03;;
15271;SDS011;7737;51.578;7.268;2023-10-13T14:18:43;13.63;;;5.53;;
15271;SDS011;7737;51.578;7.268;2023-10-13T14:21:11;10.63;;;4.75;;
15271;SDS011;7737;51.578;7.268;2023-10-13T14:23:42;9.90;;;5.10;;
15271;SDS011;7737;51.578;7.268;2023-10-13T14:26:11;18.23;;;6.00;;
15271;SDS011;7737;51.578;7.268;2023-10-13T14:28:45;10.80;;;5.45;;
15271;SDS011;7737;51.578;7.268;2023-10-13T14:31:18;13.07;;;5.45;;
15271;SDS011;7737;51.578;7.268;2023-10-13T14:33:45;10.35;;;5.00;;
15271;SDS011;7737;51.578;7.268;2023-10-13T14:36:13;11.20;;;5.30;;
15271;SDS011;7737;51.578;7.268;2023-10-13T14:38:45;10.93;;;4.88;;
15271;SDS011;7737;51.578;7.268;2023-10-13T14:41:15;11.77;;;5.38;;
15271;SDS011;7737;51.578;7.268;2023-10-13T14:43:42;10.48;;;5.18;;
15271;SDS011;7737;51.578;7.268;2023-10-13T14:46:12;12.40;;;5.38;;
15271;SDS011;7737;51.578;7.268;2023-10-13T14:48:41;16.13;;;5.20;;
15271;SDS011;7737;51.578;7.268;2023-10-13T14:51:08;16.10;;;5.05;;
15271;SDS011;7737;51.578;7.268;2023-10-13T14:53:38;11.93;;;4.65;;
15271;SDS011;7737;51.578;7.268;2023-10-13T14:56:09;12.38;;;4.72;;
15271;SDS011;7737;51.578;7.268;2023-10-13T14:58:37;9.88;;;4.85;;
15271;SDS011;7737;51.578;7.268;2023-10-13T15:01:10;13.52;;;5.35;;
15271;SDS011;7737;51.578;7.268;2023-10-13T15:03:41;12.27;;;5.05;;
15271;SDS011;7737;51.578;7.268;2023-10-13T15:06:14;14.32;;;5.00;;
15271;SDS011;7737;51.578;7.268;2023-10-13T15:08:42;13.13;;;4.97;;
15271;SDS011;7737;51.578;7.268;2023-10-13T15:11:11;15.25;;;5.40;;
15271;SDS011;7737;51.578;7.268;2023-10-13T15:13:38;13.00;;;5.57;;
15271;SDS011;7737;51.578;7.268;2023-10-13T15:16:12;15.50;;;4.70;;
15271;SDS011;7737;51.578;7.268;2023-10-13T15:18:41;11.43;;;4.78;;
15271;SDS011;7737;51.578;7.268;2023-10-13T15:21:08;15.65;;;5.32;;
15271;SDS011;7737;51.578;7.268;2023-10-13T15:23:34;13.98;;;5.18;;
15271;SDS011;7737;51.578;7.268;2023-10-13T15:26:07;8.20;;;4.57;;
15271;SDS011;7737;51.578;7.268;2023-10-13T15:28:35;15.82;;;6.20;;
15271;SDS011;7737;51.578;7.268;2023-10-13T15:31:02;13.40;;;6.55;;